createdAt,value
2017-05-13T00:00:30.658Z,972.9
2017-05-13T00:01:33.058Z,973
2017-05-13T00:02:35.452Z,973
2017-05-13T00:03:37.827Z,973
2017-05-13T00:04:40.222Z,973
2017-05-13T00:05:42.664Z,973
2017-05-13T00:06:44.993Z,973
2017-05-13T00:07:47.393Z,973
2017-05-13T00:08:49.762Z,972.9
2017-05-13T00:09:52.165Z,973
2017-05-13T00:10:54.658Z,973
2017-05-13T00:11:57.000Z,973
2017-05-13T00:12:59.367Z,973
2017-05-13T00:14:01.779Z,973
2017-05-13T00:15:04.135Z,973
2017-05-13T00:16:06.515Z,972.7
2017-05-13T00:17:08.888Z,973.1
2017-05-13T00:18:11.293Z,973
2017-05-13T00:19:13.652Z,973
2017-05-13T00:20:16.026Z,973
2017-05-13T00:21:18.438Z,973
2017-05-13T00:22:20.787Z,973
2017-05-13T00:23:23.149Z,973.1
2017-05-13T00:24:25.488Z,973.1
2017-05-13T00:25:27.862Z,973
2017-05-13T00:26:30.231Z,973
2017-05-13T00:27:32.640Z,973.1
2017-05-13T00:28:34.992Z,973.1
2017-05-13T00:29:37.402Z,973
2017-05-13T00:30:39.762Z,973
2017-05-13T00:31:42.154Z,973
2017-05-13T00:32:44.507Z,973
2017-05-13T00:33:46.923Z,973
2017-05-13T00:34:49.698Z,973
2017-05-13T00:35:52.139Z,973
2017-05-13T00:36:54.507Z,973
2017-05-13T00:37:56.850Z,972.6
2017-05-13T00:39:00.168Z,973
2017-05-13T00:40:02.629Z,973
2017-05-13T00:41:05.605Z,973
2017-05-13T00:42:07.992Z,972.9
2017-05-13T00:43:10.339Z,973
2017-05-13T00:44:12.749Z,972.9
2017-05-13T00:45:15.098Z,972.9
2017-05-13T00:46:17.517Z,972.9
2017-05-13T00:47:20.543Z,972.9
2017-05-13T00:48:22.972Z,972.9
2017-05-13T00:49:25.360Z,972.9
2017-05-13T00:50:27.741Z,972.9
2017-05-13T00:51:30.128Z,972.9
2017-05-13T00:52:32.488Z,972.9
2017-05-13T00:53:34.868Z,972.8
2017-05-13T00:54:37.281Z,972.6
2017-05-13T00:55:39.712Z,972.8
2017-05-13T00:56:42.108Z,972.9
2017-05-13T00:57:44.507Z,972.9
2017-05-13T00:58:46.868Z,972.9
2017-05-13T00:59:49.245Z,972.8
2017-05-13T01:00:51.625Z,972.8
2017-05-13T01:01:54.002Z,972.9
2017-05-13T01:02:56.387Z,972.8
2017-05-13T01:03:58.769Z,972.8
2017-05-13T01:05:01.204Z,972.8
2017-05-13T01:06:03.559Z,972.8
2017-05-13T01:07:05.904Z,972.8
2017-05-13T01:08:08.253Z,972.8
2017-05-13T01:09:10.660Z,972.8
2017-05-13T01:10:13.081Z,972.7
2017-05-13T01:11:15.465Z,972.8
2017-05-13T01:12:17.810Z,972.8
2017-05-13T01:13:20.181Z,972.8
2017-05-13T01:14:22.529Z,972.8
2017-05-13T01:15:24.897Z,972.8
2017-05-13T01:16:27.225Z,972.8
2017-05-13T01:17:29.616Z,972.8
2017-05-13T01:18:31.973Z,972.9
2017-05-13T01:19:34.329Z,972.9
2017-05-13T01:20:36.682Z,972.8
2017-05-13T01:21:39.037Z,972.8
2017-05-13T01:22:41.414Z,972.8
2017-05-13T01:23:43.763Z,972.8
2017-05-13T01:24:46.098Z,972.6
2017-05-13T01:25:48.500Z,972.9
2017-05-13T01:26:50.864Z,972.9
2017-05-13T01:27:53.207Z,972.9
2017-05-13T01:28:55.562Z,973
2017-05-13T01:29:57.924Z,973
2017-05-13T01:31:00.286Z,973
2017-05-13T01:32:02.641Z,973
2017-05-13T01:33:04.972Z,973
2017-05-13T01:34:07.373Z,973
2017-05-13T01:35:09.730Z,973
2017-05-13T01:36:12.097Z,973
2017-05-13T01:37:14.428Z,973
2017-05-13T01:38:16.804Z,973
2017-05-13T01:39:19.225Z,973.1
2017-05-13T01:40:21.748Z,973.1
2017-05-13T01:41:24.203Z,973.1
2017-05-13T01:42:26.811Z,973.1
2017-05-13T01:43:29.306Z,973
2017-05-13T01:44:31.672Z,973.1
2017-05-13T01:45:34.237Z,973.1
2017-05-13T01:46:36.569Z,973.1
2017-05-13T01:47:38.929Z,973.1
2017-05-13T01:48:41.378Z,973.1
2017-05-13T01:49:43.819Z,973.1
2017-05-13T01:50:46.168Z,973.1
2017-05-13T01:51:48.531Z,973.1
2017-05-13T01:52:50.894Z,973
2017-05-13T01:53:53.256Z,973.1
2017-05-13T01:54:55.599Z,973
2017-05-13T01:55:58.024Z,973
2017-05-13T01:57:00.934Z,973
2017-05-13T01:58:03.337Z,973.1
2017-05-13T01:59:05.701Z,973.1
2017-05-13T02:00:08.054Z,973.1
2017-05-13T02:01:10.496Z,973.1
2017-05-13T02:02:12.909Z,973.1
2017-05-13T02:03:15.275Z,973.1
2017-05-13T02:04:17.641Z,973.1
2017-05-13T02:05:19.969Z,973.1
2017-05-13T02:06:22.362Z,973.1
2017-05-13T02:07:24.690Z,973.1
2017-05-13T02:08:27.021Z,973.1
2017-05-13T02:09:29.373Z,973.1
2017-05-13T02:10:31.750Z,973.2
2017-05-13T02:11:34.102Z,973.2
2017-05-13T02:12:36.614Z,973.3
2017-05-13T02:13:39.020Z,973.3
2017-05-13T02:14:41.394Z,973.2
2017-05-13T02:15:43.829Z,973.3
2017-05-13T02:16:46.904Z,973.3
2017-05-13T02:17:49.322Z,973.3
2017-05-13T02:18:51.764Z,973.3
2017-05-13T02:19:54.160Z,973.3
2017-05-13T02:20:56.524Z,973.3
2017-05-13T02:21:58.848Z,973.3
2017-05-13T02:23:01.306Z,973.3
2017-05-13T02:24:03.676Z,973.3
2017-05-13T02:25:06.041Z,973.3
2017-05-13T02:26:08.436Z,973.3
2017-05-13T02:27:10.833Z,973.2
2017-05-13T02:28:13.243Z,973.3
2017-05-13T02:29:15.645Z,973.3
2017-05-13T02:30:18.013Z,973.3
2017-05-13T02:31:20.379Z,973.4
2017-05-13T02:32:22.731Z,973.4
2017-05-13T02:33:25.092Z,973.4
2017-05-13T02:34:28.148Z,973.4
2017-05-13T02:35:30.504Z,973.4
2017-05-13T02:36:32.939Z,973.4
2017-05-13T02:37:35.303Z,973.3
2017-05-13T02:38:37.666Z,973.4
2017-05-13T02:39:40.063Z,973.4
2017-05-13T02:40:42.405Z,973.4
2017-05-13T02:41:44.782Z,973.4
2017-05-13T02:42:47.125Z,973.4
2017-05-13T02:43:49.551Z,973.4
2017-05-13T02:44:51.933Z,973.4
2017-05-13T02:45:54.289Z,973.4
2017-05-13T02:46:56.656Z,973.4
2017-05-13T02:47:59.009Z,973.4
2017-05-13T02:49:01.426Z,973.4
2017-05-13T02:50:03.770Z,973.4
2017-05-13T02:51:06.164Z,973.4
2017-05-13T02:52:08.545Z,973.4
2017-05-13T02:53:10.900Z,973.4
2017-05-13T02:54:13.317Z,973.4
2017-05-13T02:55:15.639Z,973.5
2017-05-13T02:56:18.025Z,973.5
2017-05-13T02:57:20.378Z,973.4
2017-05-13T02:58:22.800Z,973.5
2017-05-13T02:59:25.186Z,973.5
2017-05-13T03:00:27.568Z,973.5
2017-05-13T03:01:29.884Z,973.5
2017-05-13T03:02:32.226Z,973.5
2017-05-13T03:03:34.599Z,973.5
2017-05-13T03:04:36.955Z,973.5
2017-05-13T03:05:39.332Z,973.6
2017-05-13T03:06:41.780Z,973.6
2017-05-13T03:07:44.100Z,973.6
2017-05-13T03:08:46.481Z,973.6
2017-05-13T03:09:48.872Z,973.6
2017-05-13T03:10:51.209Z,973.6
2017-05-13T03:11:53.633Z,973.6
2017-05-13T03:12:55.961Z,973.6
2017-05-13T03:13:58.366Z,973.3
2017-05-13T03:15:00.779Z,973.5
2017-05-13T03:16:03.158Z,973.6
2017-05-13T03:17:05.508Z,973.5
2017-05-13T03:18:07.876Z,973.5
2017-05-13T03:19:10.786Z,973.5
2017-05-13T03:20:13.137Z,973.5
2017-05-13T03:21:15.496Z,973.5
2017-05-13T03:22:17.806Z,973.5
2017-05-13T03:23:21.181Z,973.5
2017-05-13T03:24:23.572Z,973.6
2017-05-13T03:25:25.940Z,973.5
2017-05-13T03:26:28.266Z,973.5
2017-05-13T03:27:30.602Z,973.6
2017-05-13T03:28:33.006Z,973.5
2017-05-13T03:29:35.385Z,973.6
2017-05-13T03:30:37.743Z,973.6
2017-05-13T03:31:40.108Z,973.5
2017-05-13T03:32:42.443Z,973.6
2017-05-13T03:33:44.833Z,973.6
2017-05-13T03:34:47.180Z,973.5
2017-05-13T03:35:49.547Z,973.6
2017-05-13T03:36:51.918Z,973.6
2017-05-13T03:37:55.462Z,973.6
2017-05-13T03:38:57.828Z,973.6
2017-05-13T03:40:00.201Z,973.6
2017-05-13T03:41:02.594Z,973.5
2017-05-13T03:42:04.921Z,973.6
2017-05-13T03:43:07.329Z,973.5
2017-05-13T03:44:09.731Z,973.6
2017-05-13T03:45:12.084Z,973.6
2017-05-13T03:46:14.455Z,973.6
2017-05-13T03:47:16.792Z,973.6
2017-05-13T03:48:19.248Z,973.6
2017-05-13T03:49:21.670Z,973.5
2017-05-13T03:50:24.011Z,973.6
2017-05-13T03:51:26.388Z,973.5
2017-05-13T03:52:28.757Z,973.6
2017-05-13T03:53:31.114Z,973.6
2017-05-13T03:54:33.483Z,973.6
2017-05-13T03:55:35.851Z,973.6
2017-05-13T03:56:38.182Z,973.6
2017-05-13T03:57:40.552Z,973.6
2017-05-13T03:58:42.943Z,973.6
2017-05-13T03:59:45.313Z,973.6
2017-05-13T04:00:47.725Z,973.6
2017-05-13T04:01:50.114Z,973.6
2017-05-13T04:02:52.511Z,973.6
2017-05-13T04:03:54.846Z,973.7
2017-05-13T04:04:57.513Z,973.7
2017-05-13T04:05:59.883Z,973.7
2017-05-13T04:07:02.254Z,973.5
2017-05-13T04:08:04.594Z,973.7
2017-05-13T04:09:06.969Z,973.7
2017-05-13T04:10:09.322Z,973.8
2017-05-13T04:11:11.713Z,973.8
2017-05-13T04:12:14.082Z,973.8
2017-05-13T04:13:16.460Z,973.9
2017-05-13T04:14:18.781Z,973.8
2017-05-13T04:15:21.109Z,973.9
2017-05-13T04:16:23.457Z,973.9
2017-05-13T04:17:26.099Z,973.8
2017-05-13T04:18:28.520Z,973.8
2017-05-13T04:19:30.868Z,973.9
2017-05-13T04:20:33.266Z,973.9
2017-05-13T04:21:35.583Z,973.9
2017-05-13T04:22:37.950Z,973.9
2017-05-13T04:23:40.312Z,973.9
2017-05-13T04:24:42.704Z,974
2017-05-13T04:25:45.050Z,974
2017-05-13T04:26:47.419Z,974
2017-05-13T04:27:49.752Z,974
2017-05-13T04:28:52.107Z,974
2017-05-13T04:29:54.472Z,974
2017-05-13T04:30:56.797Z,974
2017-05-13T04:31:59.157Z,974
2017-05-13T04:33:01.586Z,974.1
2017-05-13T04:34:03.956Z,974.1
2017-05-13T04:35:06.333Z,973.8
2017-05-13T04:36:08.705Z,974.1
2017-05-13T04:37:11.069Z,974.1
2017-05-13T04:38:13.468Z,974.1
2017-05-13T04:39:15.805Z,974.1
2017-05-13T04:40:18.145Z,974.1
2017-05-13T04:41:20.488Z,974.1
2017-05-13T04:42:22.865Z,974.1
2017-05-13T04:43:25.253Z,974.1
2017-05-13T04:44:27.582Z,974.1
2017-05-13T04:45:29.917Z,974.2
2017-05-13T04:46:32.303Z,974.2
2017-05-13T04:47:34.843Z,974.2
2017-05-13T04:48:37.240Z,974.2
2017-05-13T04:49:39.583Z,974.2
2017-05-13T04:50:42.027Z,974.2
2017-05-13T04:51:44.357Z,974.2
2017-05-13T04:52:46.701Z,974.2
2017-05-13T04:53:49.164Z,974.2
2017-05-13T04:54:51.504Z,974.2
2017-05-13T04:55:53.899Z,974.2
2017-05-13T04:58:07.529Z,974.2
2017-05-13T04:59:09.921Z,974.2
2017-05-13T05:00:12.370Z,974.2
2017-05-13T05:01:14.810Z,974.3
2017-05-13T05:02:17.189Z,974.3
2017-05-13T05:03:19.542Z,974.2
2017-05-13T05:04:21.939Z,974.3
2017-05-13T05:05:24.928Z,974.3
2017-05-13T05:06:27.288Z,974.3
2017-05-13T05:07:29.655Z,974.3
2017-05-13T05:08:32.169Z,974.3
2017-05-13T05:09:35.374Z,974.4
2017-05-13T05:10:37.767Z,974.4
2017-05-13T05:11:40.149Z,974.4
2017-05-13T05:12:43.250Z,974.4
2017-05-13T05:13:46.432Z,974.4
2017-05-13T05:14:48.848Z,974.4
2017-05-13T05:15:51.208Z,974.4
2017-05-13T05:16:53.606Z,974.4
2017-05-13T05:17:55.962Z,974.4
2017-05-13T05:18:58.314Z,974.4
2017-05-13T05:20:00.690Z,974.4
2017-05-13T05:21:03.034Z,974.4
2017-05-13T05:22:05.377Z,974.4
2017-05-13T05:23:07.763Z,974.4
2017-05-13T05:24:10.177Z,974.4
2017-05-13T05:25:12.555Z,974.4
2017-05-13T05:26:17.690Z,974.4
2017-05-13T05:27:20.061Z,974.4
2017-05-13T05:28:22.437Z,974.5
2017-05-13T05:29:24.801Z,974.5
2017-05-13T05:30:27.134Z,974.5
2017-05-13T05:31:29.470Z,974.5
2017-05-13T05:32:31.916Z,974.5
2017-05-13T05:34:45.570Z,974.5
2017-05-13T05:35:47.985Z,974.5
2017-05-13T05:36:50.650Z,974.5
2017-05-13T05:37:53.064Z,974.5
2017-05-13T05:38:55.398Z,974.5
2017-05-13T05:39:57.758Z,974.5
2017-05-13T05:41:00.122Z,974.5
2017-05-13T05:42:02.472Z,974.5
2017-05-13T05:43:04.832Z,974.4
2017-05-13T05:44:07.184Z,974.5
2017-05-13T05:45:09.563Z,974.5
2017-05-13T05:46:12.000Z,974.5
2017-05-13T05:47:14.338Z,974.6
2017-05-13T05:48:16.724Z,974.6
2017-05-13T05:49:19.112Z,974.6
2017-05-13T05:50:21.480Z,974.6
2017-05-13T05:51:23.923Z,974.6
2017-05-13T05:52:26.325Z,974.6
2017-05-13T05:53:28.714Z,974.7
2017-05-13T05:54:31.124Z,974.6
2017-05-13T05:55:33.539Z,974.7
2017-05-13T05:56:35.912Z,974.6
2017-05-13T05:57:38.330Z,974.7
2017-05-13T05:58:40.715Z,974.7
2017-05-13T05:59:45.326Z,974.7
2017-05-13T06:00:47.701Z,974.7
2017-05-13T06:01:50.104Z,974.7
2017-05-13T06:02:52.606Z,974.6
2017-05-13T06:03:54.964Z,974.7
2017-05-13T06:04:57.363Z,974.7
2017-05-13T06:05:59.723Z,974.4
2017-05-13T06:07:02.241Z,974.6
2017-05-13T06:08:04.668Z,974.6
2017-05-13T06:09:07.911Z,974.7
2017-05-13T06:10:10.277Z,974.7
2017-05-13T06:11:12.639Z,974.8
2017-05-13T06:12:15.002Z,974.8
2017-05-13T06:13:17.387Z,974.8
2017-05-13T06:14:19.787Z,974.8
2017-05-13T06:15:22.219Z,974.7
2017-05-13T06:16:24.578Z,974.8
2017-05-13T06:17:26.969Z,974.8
2017-05-13T06:18:29.362Z,974.8
2017-05-13T06:19:31.765Z,974.8
2017-05-13T06:20:34.105Z,974.8
2017-05-13T06:21:36.483Z,974.8
2017-05-13T06:22:38.882Z,974.8
2017-05-13T06:23:41.259Z,974.8
2017-05-13T06:24:43.731Z,974.8
2017-05-13T06:25:46.129Z,974.9
2017-05-13T06:26:48.565Z,974.8
2017-05-13T06:27:50.927Z,974.9
2017-05-13T06:28:53.403Z,974.9
2017-05-13T06:29:55.770Z,974.9
2017-05-13T06:30:58.197Z,974.9
2017-05-13T06:32:00.543Z,974.9
2017-05-13T06:33:02.973Z,975
2017-05-13T06:34:05.415Z,975
2017-05-13T06:35:07.855Z,974.8
2017-05-13T06:36:10.242Z,975
2017-05-13T06:37:12.609Z,975
2017-05-13T06:38:15.004Z,975
2017-05-13T06:39:17.389Z,975
2017-05-13T06:40:19.793Z,975
2017-05-13T06:41:22.259Z,975
2017-05-13T06:42:24.642Z,974.9
2017-05-13T06:43:27.091Z,974.8
2017-05-13T06:45:40.775Z,975
2017-05-13T06:46:43.213Z,975
2017-05-13T06:47:45.610Z,975.1
2017-05-13T06:48:48.040Z,975
2017-05-13T06:49:50.470Z,975.1
2017-05-13T06:50:52.872Z,975.1
2017-05-13T06:51:55.288Z,975.1
2017-05-13T06:52:57.708Z,975
2017-05-13T06:54:00.104Z,975.1
2017-05-13T06:55:02.628Z,975.1
2017-05-13T06:56:05.309Z,975.1
2017-05-13T06:57:07.676Z,975.1
2017-05-13T06:58:10.092Z,975.1
2017-05-13T06:59:12.554Z,975.1
2017-05-13T07:00:14.914Z,975.1
2017-05-13T07:01:17.391Z,975.1
2017-05-13T07:02:20.750Z,975.1
2017-05-13T07:03:23.213Z,975.1
2017-05-13T07:04:28.348Z,975.2
2017-05-13T07:05:30.763Z,975.2
2017-05-13T07:06:33.230Z,975.1
2017-05-13T07:07:35.592Z,975.2
2017-05-13T07:08:38.019Z,975.2
2017-05-13T07:09:40.449Z,975.1
2017-05-13T07:10:42.903Z,975.1
2017-05-13T07:11:45.352Z,975.2
2017-05-13T07:12:47.720Z,975.2
2017-05-13T07:13:50.152Z,975.3
2017-05-13T07:14:52.572Z,975.2
2017-05-13T07:15:54.976Z,975.2
2017-05-13T07:16:57.378Z,975.3
2017-05-13T07:17:59.740Z,975.2
2017-05-13T07:19:02.156Z,975.3
2017-05-13T07:20:04.536Z,975.3
2017-05-13T07:21:06.883Z,975.4
2017-05-13T07:22:09.290Z,975.4
2017-05-13T07:23:11.932Z,975.4
2017-05-13T07:24:19.486Z,975.4
2017-05-13T07:25:22.024Z,975.4
2017-05-13T07:26:24.417Z,975.4
2017-05-13T07:27:27.478Z,975.4
2017-05-13T07:28:29.898Z,975.4
2017-05-13T07:29:32.401Z,975.4
2017-05-13T07:30:34.931Z,975.4
2017-05-13T07:32:48.800Z,975.5
2017-05-13T07:33:51.171Z,975.5
2017-05-13T07:36:05.075Z,975.5
2017-05-13T07:37:07.511Z,975.5
2017-05-13T07:38:09.967Z,975.5
2017-05-13T07:39:12.707Z,975.6
2017-05-13T07:40:15.063Z,975.6
2017-05-13T07:41:17.465Z,975.5
2017-05-13T07:42:20.542Z,975.6
2017-05-13T07:43:22.962Z,975.6
2017-05-13T07:44:25.459Z,975.6
2017-05-13T07:45:27.890Z,975.7
2017-05-13T07:46:31.296Z,975.6
2017-05-13T07:47:33.757Z,975.7
2017-05-13T07:48:36.106Z,975.7
2017-05-13T07:49:38.482Z,975.7
2017-05-13T07:50:40.904Z,975.7
2017-05-13T07:51:43.386Z,975.7
2017-05-13T07:52:45.752Z,975.7
2017-05-13T07:53:48.288Z,975.5
2017-05-13T07:54:50.942Z,975.8
2017-05-13T07:55:53.497Z,975.8
2017-05-13T07:56:56.279Z,975.7
2017-05-13T07:57:59.268Z,975.8
2017-05-13T07:59:02.476Z,975.8
2017-05-13T08:00:04.971Z,975.8
2017-05-13T08:01:08.598Z,975.8
2017-05-13T08:02:11.003Z,975.8
2017-05-13T08:03:13.638Z,975.9
2017-05-13T08:05:28.138Z,975.8
2017-05-13T08:06:30.588Z,975.7
2017-05-13T08:07:33.041Z,975.7
2017-05-13T08:08:35.478Z,975.8
2017-05-13T08:09:37.890Z,975.8
2017-05-13T08:10:40.662Z,975.6
2017-05-13T08:11:43.171Z,975.6
2017-05-13T08:12:45.613Z,975.8
2017-05-13T08:13:48.385Z,975.8
2017-05-13T08:14:50.820Z,975.8
2017-05-13T08:15:53.223Z,975.6
2017-05-13T08:16:55.675Z,975.6
2017-05-13T08:17:58.129Z,975.7
2017-05-13T08:19:00.570Z,975.8
2017-05-13T08:20:03.693Z,975.7
2017-05-13T08:21:06.149Z,975.8
2017-05-13T08:22:09.215Z,975.7
2017-05-13T08:23:11.748Z,975.8
2017-05-13T08:24:14.235Z,975.9
2017-05-13T08:25:17.424Z,975.7
2017-05-13T08:26:21.704Z,975.6
2017-05-13T08:27:26.458Z,975.6
2017-05-13T08:28:29.229Z,975.8
2017-05-13T08:29:31.726Z,975.9
2017-05-13T08:30:34.250Z,975.9
2017-05-13T08:31:37.544Z,975.9
2017-05-13T08:32:43.984Z,975.7
2017-05-13T08:33:46.471Z,975.9
2017-05-13T08:34:48.921Z,975.9
2017-05-13T08:35:51.866Z,976
2017-05-13T08:36:54.312Z,976
2017-05-13T08:37:57.870Z,976
2017-05-13T08:39:00.845Z,975.9
2017-05-13T08:40:03.352Z,975.9
2017-05-13T08:41:05.762Z,976
2017-05-13T08:42:08.251Z,976
2017-05-13T08:43:11.882Z,976
2017-05-13T08:44:15.639Z,976
2017-05-13T08:45:18.036Z,976
2017-05-13T08:46:20.488Z,976
2017-05-13T08:47:23.103Z,976
2017-05-13T08:48:25.558Z,976.1
2017-05-13T08:49:28.049Z,976.1
2017-05-13T08:50:31.272Z,975.8
2017-05-13T08:51:34.395Z,976.1
2017-05-13T08:52:36.778Z,976
2017-05-13T08:53:39.334Z,976
2017-05-13T08:54:41.802Z,976
2017-05-13T08:55:44.341Z,976
2017-05-13T08:56:46.767Z,976.1
2017-05-13T08:57:49.240Z,976
2017-05-13T08:58:51.689Z,976
2017-05-13T08:59:54.250Z,976
2017-05-13T09:00:56.704Z,976.1
2017-05-13T09:01:59.155Z,976
2017-05-13T09:03:01.636Z,976.2
2017-05-13T09:04:04.161Z,976.1
2017-05-13T09:05:06.596Z,976.1
2017-05-13T09:06:09.019Z,975.9
2017-05-13T09:07:11.487Z,976.1
2017-05-13T09:08:14.198Z,976.1
2017-05-13T09:09:16.666Z,976
2017-05-13T09:10:19.124Z,976
2017-05-13T09:11:21.605Z,976.1
2017-05-13T09:12:24.082Z,976.1
2017-05-13T09:13:27.119Z,975.9
2017-05-13T09:14:29.576Z,976.1
2017-05-13T09:15:32.054Z,976.1
2017-05-13T09:16:34.584Z,976.1
2017-05-13T09:17:37.049Z,976.2
2017-05-13T09:18:39.517Z,976.2
2017-05-13T09:19:42.001Z,976.1
2017-05-13T09:20:44.407Z,976.2
2017-05-13T09:21:46.952Z,976.1
2017-05-13T09:22:50.120Z,976.1
2017-05-13T09:23:52.562Z,976.1
2017-05-13T09:24:55.321Z,976.1
2017-05-13T09:25:57.803Z,976.2
2017-05-13T09:27:00.359Z,976.1
2017-05-13T09:28:02.868Z,976.1
2017-05-13T09:29:05.429Z,976.2
2017-05-13T09:30:07.933Z,976.1
2017-05-13T09:31:10.380Z,976.1
2017-05-13T09:32:12.812Z,976.2
2017-05-13T09:33:15.409Z,976.1
2017-05-13T09:34:17.907Z,976
2017-05-13T09:35:21.025Z,976.1
2017-05-13T09:36:23.480Z,976.2
2017-05-13T09:37:26.020Z,976.1
2017-05-13T09:38:28.500Z,976.1
2017-05-13T09:39:31.232Z,976.2
2017-05-13T09:40:33.833Z,976.2
2017-05-13T09:41:36.349Z,976.2
2017-05-13T09:42:38.821Z,976.2
2017-05-13T09:43:41.369Z,976
2017-05-13T09:44:43.944Z,976.2
2017-05-13T09:45:47.337Z,976.2
2017-05-13T09:46:49.796Z,976.2
2017-05-13T09:47:52.292Z,976
2017-05-13T09:48:54.869Z,976.2
2017-05-13T09:49:57.318Z,976.1
2017-05-13T09:50:59.775Z,976
2017-05-13T09:52:02.221Z,976.1
2017-05-13T09:53:04.777Z,976.1
2017-05-13T09:54:07.860Z,976.1
2017-05-13T09:55:10.558Z,976.1
2017-05-13T09:56:13.067Z,976.1
2017-05-13T09:57:15.617Z,976.1
2017-05-13T09:58:18.180Z,976
2017-05-13T09:59:20.715Z,975.8
2017-05-13T10:00:23.299Z,976.1
2017-05-13T10:01:26.447Z,976
2017-05-13T10:02:28.994Z,976
2017-05-13T10:03:31.462Z,976
2017-05-13T10:04:33.881Z,976
2017-05-13T10:05:36.453Z,976
2017-05-13T10:06:38.902Z,976
2017-05-13T10:07:42.092Z,976.1
2017-05-13T10:08:44.844Z,976
2017-05-13T10:09:47.503Z,976
2017-05-13T10:10:50.008Z,976
2017-05-13T10:11:52.547Z,976
2017-05-13T10:12:56.158Z,976
2017-05-13T10:13:59.154Z,975.9
2017-05-13T10:15:01.721Z,976
2017-05-13T10:16:04.347Z,975.8
2017-05-13T10:17:06.974Z,976
2017-05-13T10:18:09.564Z,976
2017-05-13T10:19:12.017Z,976
2017-05-13T10:20:14.526Z,976
2017-05-13T10:21:17.059Z,975.9
2017-05-13T10:22:19.607Z,975.9
2017-05-13T10:23:22.117Z,975.9
2017-05-13T10:24:25.381Z,975.7
2017-05-13T10:25:27.906Z,975.9
2017-05-13T10:26:30.398Z,975.9
2017-05-13T10:27:32.846Z,975.8
2017-05-13T10:28:35.381Z,975.8
2017-05-13T10:29:37.906Z,975.8
2017-05-13T10:30:40.450Z,975.8
2017-05-13T10:31:43.372Z,975.8
2017-05-13T10:32:45.829Z,975.8
2017-05-13T10:33:48.661Z,975.8
2017-05-13T10:34:51.257Z,975.9
2017-05-13T10:35:53.686Z,975.9
2017-05-13T10:36:56.292Z,975.9
2017-05-13T10:38:05.374Z,975.7
2017-05-13T10:39:07.988Z,975.8
2017-05-13T10:40:10.474Z,975.9
2017-05-13T10:41:13.044Z,976
2017-05-13T10:42:15.602Z,975.8
2017-05-13T10:43:18.079Z,975.9
2017-05-13T10:44:20.626Z,975.7
2017-05-13T10:45:24.209Z,975.7
2017-05-13T10:46:26.810Z,975.6
2017-05-13T10:47:30.554Z,975.8
2017-05-13T10:48:34.080Z,975.7
2017-05-13T10:49:36.715Z,975.7
2017-05-13T10:50:39.221Z,975.7
2017-05-13T10:51:41.791Z,975.7
2017-05-13T10:52:44.279Z,975.6
2017-05-13T10:53:47.341Z,975.6
2017-05-13T10:54:50.736Z,975.6
2017-05-13T10:55:53.233Z,975.5
2017-05-13T10:56:55.780Z,975.6
2017-05-13T10:57:58.293Z,975.6
2017-05-13T10:59:00.840Z,975.6
2017-05-13T11:00:03.371Z,975.7
2017-05-13T11:01:05.877Z,975.7
2017-05-13T11:02:08.382Z,975.7
2017-05-13T11:03:10.925Z,975.7
2017-05-13T11:04:13.497Z,975.7
2017-05-13T11:05:26.015Z,975.7
2017-05-13T11:06:28.470Z,975.7
2017-05-13T11:07:31.970Z,975.8
2017-05-13T11:08:34.546Z,975.9
2017-05-13T11:09:37.181Z,976
2017-05-13T11:10:39.956Z,976
2017-05-13T11:11:42.489Z,976.2
2017-05-13T11:12:44.911Z,976.2
2017-05-13T11:13:47.510Z,976.2
2017-05-13T11:14:51.700Z,976.2
2017-05-13T11:15:54.216Z,976.3
2017-05-13T11:16:57.445Z,976.2
2017-05-13T11:17:59.953Z,976.3
2017-05-13T11:19:03.003Z,976.3
2017-05-13T11:20:05.712Z,976.5
2017-05-13T11:21:08.491Z,976.4
2017-05-13T11:22:11.003Z,976.4
2017-05-13T11:23:14.525Z,976.5
2017-05-13T11:24:17.023Z,976.6
2017-05-13T11:25:19.540Z,976.5
2017-05-13T11:26:22.733Z,976.5
2017-05-13T11:27:25.218Z,976.5
2017-05-13T11:28:27.796Z,976.5
2017-05-13T11:29:30.237Z,976.5
2017-05-13T11:30:32.690Z,976.6
2017-05-13T11:31:35.236Z,976.3
2017-05-13T11:32:37.934Z,976.6
2017-05-13T11:33:40.488Z,976.7
2017-05-13T11:34:43.556Z,976.6
2017-05-13T11:35:46.084Z,976.7
2017-05-13T11:36:48.660Z,976.4
2017-05-13T11:37:51.133Z,976.8
2017-05-13T11:38:53.586Z,976.7
2017-05-13T11:39:56.055Z,976.8
2017-05-13T11:40:58.563Z,976.8
2017-05-13T11:42:01.120Z,976.7
2017-05-13T11:43:04.626Z,976.8
2017-05-13T11:44:07.896Z,976.8
2017-05-13T11:45:10.615Z,976.9
2017-05-13T11:46:13.203Z,976.6
2017-05-13T11:47:15.790Z,976.9
2017-05-13T11:48:18.278Z,976.9
2017-05-13T11:49:21.656Z,976.9
2017-05-13T11:50:24.207Z,976.9
2017-05-13T11:51:26.857Z,976.9
2017-05-13T11:52:29.297Z,977
2017-05-13T11:53:31.840Z,976.9
2017-05-13T11:54:35.263Z,976.9
2017-05-13T11:55:37.896Z,977
2017-05-13T11:56:40.270Z,976.6
2017-05-13T11:57:43.669Z,976.9
2017-05-13T11:58:46.225Z,976.6
2017-05-13T11:59:49.232Z,976.7
2017-05-13T12:00:52.332Z,976.8
2017-05-13T12:01:54.801Z,976.9
2017-05-13T12:02:57.816Z,976.9
2017-05-13T12:04:00.285Z,976.9
2017-05-13T12:05:02.804Z,976.9
2017-05-13T12:06:06.264Z,976.9
2017-05-13T12:07:09.371Z,977
2017-05-13T12:08:12.556Z,977
2017-05-13T12:09:15.084Z,976.9
2017-05-13T12:10:17.938Z,977
2017-05-13T12:11:20.417Z,977
2017-05-13T12:12:22.965Z,976.9
2017-05-13T12:13:25.521Z,977
2017-05-13T12:14:29.150Z,976.9
2017-05-13T12:15:32.610Z,977
2017-05-13T12:16:36.331Z,977
2017-05-13T12:17:39.458Z,976.7
2017-05-13T12:18:43.135Z,977
2017-05-13T12:19:45.652Z,977
2017-05-13T12:20:49.146Z,977
2017-05-13T12:21:51.763Z,977
2017-05-13T12:22:54.265Z,977
2017-05-13T12:23:57.052Z,977
2017-05-13T12:24:59.594Z,977
2017-05-13T12:26:02.155Z,977
2017-05-13T12:27:04.712Z,976.7
2017-05-13T12:28:07.836Z,976.8
2017-05-13T12:29:10.960Z,976.7
2017-05-13T12:30:15.197Z,977
2017-05-13T12:31:17.761Z,977
2017-05-13T12:32:20.268Z,977
2017-05-13T12:33:22.690Z,976.7
2017-05-13T12:34:25.206Z,977
2017-05-13T12:35:27.788Z,977
2017-05-13T12:36:30.943Z,976.6
2017-05-13T12:37:33.454Z,976.8
2017-05-13T12:38:36.022Z,976.6
2017-05-13T12:39:38.566Z,976.9
2017-05-13T12:40:41.724Z,976.9
2017-05-13T12:41:44.255Z,976.8
2017-05-13T12:42:46.799Z,976.9
2017-05-13T12:43:49.295Z,976.9
2017-05-13T12:44:52.481Z,976.8
2017-05-13T12:45:54.978Z,976.9
2017-05-13T12:46:57.512Z,976.8
2017-05-13T12:48:00.839Z,976.7
2017-05-13T12:49:03.268Z,976.9
2017-05-13T12:50:05.825Z,976.9
2017-05-13T12:51:08.259Z,976.9
2017-05-13T12:52:10.727Z,976.9
2017-05-13T12:53:13.227Z,976.9
2017-05-13T12:54:17.846Z,976.9
2017-05-13T12:55:20.331Z,976.9
2017-05-13T12:56:22.864Z,976.9
2017-05-13T12:57:25.387Z,976.9
2017-05-13T12:58:27.878Z,976.9
2017-05-13T12:59:31.913Z,976.9
2017-05-13T13:00:34.933Z,976.9
2017-05-13T13:02:48.899Z,976.7
2017-05-13T13:03:52.351Z,976.9
2017-05-13T13:04:54.780Z,976.8
2017-05-13T13:05:57.794Z,976.9
2017-05-13T13:07:03.891Z,976.9
2017-05-13T13:08:06.506Z,976.9
2017-05-13T13:09:08.979Z,976.9
2017-05-13T13:10:20.184Z,976.9
2017-05-13T13:11:22.690Z,976.8
2017-05-13T13:12:25.182Z,976.8
2017-05-13T13:13:29.532Z,976.8
2017-05-13T13:14:32.019Z,976.6
2017-05-13T13:15:34.500Z,976.9
2017-05-13T13:16:37.707Z,976.8
2017-05-13T13:17:41.828Z,976.8
2017-05-13T13:18:44.803Z,976.8
2017-05-13T13:19:48.134Z,976.8
2017-05-13T13:20:50.646Z,976.8
2017-05-13T13:21:55.420Z,976.8
2017-05-13T13:22:59.589Z,976.8
2017-05-13T13:24:02.029Z,976.8
2017-05-13T13:25:05.007Z,976.7
2017-05-13T13:26:07.543Z,976.8
2017-05-13T13:27:10.036Z,976.8
2017-05-13T13:28:12.618Z,976.6
2017-05-13T13:29:15.164Z,976.8
2017-05-13T13:30:18.739Z,976.7
2017-05-13T13:31:23.220Z,977
2017-05-13T13:32:25.908Z,977
2017-05-13T13:33:28.609Z,976.9
2017-05-13T13:34:31.858Z,977
2017-05-13T13:35:34.351Z,977
2017-05-13T13:36:36.953Z,977.1
2017-05-13T13:37:39.472Z,977.1
2017-05-13T13:38:42.588Z,977
2017-05-13T13:39:45.117Z,977
2017-05-13T13:40:47.684Z,977
2017-05-13T13:41:50.236Z,977
2017-05-13T13:42:52.864Z,977
2017-05-13T13:43:55.381Z,976.9